sensor_id;sensor_type;location;lat;lon;timestamp;temperature;humidity
8340;DHT22;4207;49.314;7.162;2023-04-03T00:01:27;3.90;99.90
8340;DHT22;4207;49.314;7.162;2023-04-03T00:03:55;3.90;99.90
8340;DHT22;4207;49.314;7.162;2023-04-03T00:06:24;4.10;99.90
8340;DHT22;4207;49.314;7.162;2023-04-03T00:08:53;4.90;99.90
8340;DHT22;4207;49.314;7.162;2023-04-03T00:11:22;3.90;99.90
8340;DHT22;4207;49.314;7.162;2023-04-03T00:13:52;3.80;99.90
8340;DHT22;4207;49.314;7.162;2023-04-03T00:16:20;4.20;99.90
8340;DHT22;4207;49.314;7.162;2023-04-03T00:18:48;3.80;99.90
8340;DHT22;4207;49.314;7.162;2023-04-03T00:21:16;3.80;99.90
8340;DHT22;4207;49.314;7.162;2023-04-03T00:23:44;3.80;99.90
8340;DHT22;4207;49.314;7.162;2023-04-03T00:26:12;3.80;99.90
8340;DHT22;4207;49.314;7.162;2023-04-03T00:28:42;3.90;99.90
8340;DHT22;4207;49.314;7.162;2023-04-03T00:31:10;3.80;99.90
8340;DHT22;4207;49.314;7.162;2023-04-03T00:33:38;3.80;99.90
8340;DHT22;4207;49.314;7.162;2023-04-03T00:36:08;3.80;99.90
8340;DHT22;4207;49.314;7.162;2023-04-03T00:38:37;3.80;99.90
8340;DHT22;4207;49.314;7.162;2023-04-03T00:41:06;3.80;99.90
8340;DHT22;4207;49.314;7.162;2023-04-03T00:43:34;3.80;99.90
8340;DHT22;4207;49.314;7.162;2023-04-03T00:46:04;4.20;99.90
8340;DHT22;4207;49.314;7.162;2023-04-03T00:48:37;3.80;99.90
8340;DHT22;4207;49.314;7.162;2023-04-03T00:51:12;3.80;99.90
8340;DHT22;4207;49.314;7.162;2023-04-03T00:53:44;3.80;99.90
8340;DHT22;4207;49.314;7.162;2023-04-03T00:56:16;3.80;99.90
8340;DHT22;4207;49.314;7.162;2023-04-03T00:58:49;3.80;99.90
8340;DHT22;4207;49.314;7.162;2023-04-03T01:01:22;4.00;99.90
8340;DHT22;4207;49.314;7.162;2023-04-03T01:03:52;3.60;99.90
8340;DHT22;4207;49.314;7.162;2023-04-03T01:06:29;3.50;99.90
8340;DHT22;4207;49.314;7.162;2023-04-03T01:09:07;3.70;99.90
8340;DHT22;4207;49.314;7.162;2023-04-03T01:11:35;3.20;99.90
8340;DHT22;4207;49.314;7.162;2023-04-03T01:14:05;3.00;99.90
8340;DHT22;4207;49.314;7.162;2023-04-03T01:16:37;3.00;99.90
8340;DHT22;4207;49.314;7.162;2023-04-03T01:19:10;2.80;99.90
8340;DHT22;4207;49.314;7.162;2023-04-03T01:22:11;2.90;99.90
8340;DHT22;4207;49.314;7.162;2023-04-03T01:24:44;2.70;99.90
8340;DHT22;4207;49.314;7.162;2023-04-03T01:27:14;2.60;99.90
8340;DHT22;4207;49.314;7.162;2023-04-03T01:29:43;3.10;99.90
8340;DHT22;4207;49.314;7.162;2023-04-03T01:32:15;2.50;99.90
8340;DHT22;4207;49.314;7.162;2023-04-03T01:34:43;2.50;99.90
8340;DHT22;4207;49.314;7.162;2023-04-03T01:37:12;2.50;99.90
8340;DHT22;4207;49.314;7.162;2023-04-03T01:39:40;2.40;99.90
8340;DHT22;4207;49.314;7.162;2023-04-03T01:42:08;2.40;99.90
8340;DHT22;4207;49.314;7.162;2023-04-03T01:44:40;2.30;99.90
8340;DHT22;4207;49.314;7.162;2023-04-03T01:47:10;2.70;99.90
8340;DHT22;4207;49.314;7.162;2023-04-03T01:49:41;2.20;99.90
8340;DHT22;4207;49.314;7.162;2023-04-03T01:52:10;2.10;99.90
8340;DHT22;4207;49.314;7.162;2023-04-03T01:54:38;2.60;99.90
8340;DHT22;4207;49.314;7.162;2023-04-03T01:57:06;2.50;99.90
8340;DHT22;4207;49.314;7.162;2023-04-03T01:59:36;2.00;99.90
8340;DHT22;4207;49.314;7.162;2023-04-03T02:02:04;1.90;99.90
8340;DHT22;4207;49.314;7.162;2023-04-03T02:04:35;1.90;99.90
8340;DHT22;4207;49.314;7.162;2023-04-03T02:07:05;1.90;99.90
8340;DHT22;4207;49.314;7.162;2023-04-03T02:09:37;1.90;99.90
8340;DHT22;4207;49.314;7.162;2023-04-03T02:12:05;1.80;99.90
8340;DHT22;4207;49.314;7.162;2023-04-03T02:14:34;1.80;99.90
8340;DHT22;4207;49.314;7.162;2023-04-03T02:17:04;1.80;99.90
8340;DHT22;4207;49.314;7.162;2023-04-03T02:19:35;1.80;99.90
8340;DHT22;4207;49.314;7.162;2023-04-03T02:22:05;1.80;99.90
8340;DHT22;4207;49.314;7.162;2023-04-03T02:24:33;1.80;99.90
8340;DHT22;4207;49.314;7.162;2023-04-03T02:27:02;1.80;99.90
8340;DHT22;4207;49.314;7.162;2023-04-03T02:29:30;1.80;99.90
8340;DHT22;4207;49.314;7.162;2023-04-03T02:31:58;2.10;99.90
8340;DHT22;4207;49.314;7.162;2023-04-03T02:34:27;1.80;99.90
8340;DHT22;4207;49.314;7.162;2023-04-03T02:36:58;2.30;99.90
8340;DHT22;4207;49.314;7.162;2023-04-03T02:39:27;1.60;99.90
8340;DHT22;4207;49.314;7.162;2023-04-03T02:41:59;1.60;99.90
8340;DHT22;4207;49.314;7.162;2023-04-03T02:44:28;1.60;99.90
8340;DHT22;4207;49.314;7.162;2023-04-03T02:46:56;1.60;99.90
8340;DHT22;4207;49.314;7.162;2023-04-03T02:49:24;1.60;99.90
8340;DHT22;4207;49.314;7.162;2023-04-03T02:51:52;1.90;99.90
8340;DHT22;4207;49.314;7.162;2023-04-03T02:54:20;1.60;99.90
8340;DHT22;4207;49.314;7.162;2023-04-03T02:56:54;1.50;99.90
8340;DHT22;4207;49.314;7.162;2023-04-03T02:59:22;1.50;99.90
8340;DHT22;4207;49.314;7.162;2023-04-03T03:01:50;1.50;99.90
8340;DHT22;4207;49.314;7.162;2023-04-03T03:04:20;1.50;99.90
8340;DHT22;4207;49.314;7.162;2023-04-03T03:06:48;1.40;99.90
8340;DHT22;4207;49.314;7.162;2023-04-03T03:09:17;1.40;99.90
8340;DHT22;4207;49.314;7.162;2023-04-03T03:11:46;1.40;99.90
8340;DHT22;4207;49.314;7.162;2023-04-03T03:14:15;1.50;99.90
8340;DHT22;4207;49.314;7.162;2023-04-03T03:16:44;1.30;99.90
8340;DHT22;4207;49.314;7.162;2023-04-03T03:19:12;1.30;99.90
8340;DHT22;4207;49.314;7.162;2023-04-03T03:21:41;1.60;99.90
8340;DHT22;4207;49.314;7.162;2023-04-03T03:24:09;1.40;99.90
8340;DHT22;4207;49.314;7.162;2023-04-03T03:26:38;1.30;99.90
8340;DHT22;4207;49.314;7.162;2023-04-03T03:29:06;1.30;99.90
8340;DHT22;4207;49.314;7.162;2023-04-03T03:31:36;1.20;99.90
8340;DHT22;4207;49.314;7.162;2023-04-03T03:34:04;1.20;99.90
8340;DHT22;4207;49.314;7.162;2023-04-03T03:36:36;1.20;99.90
8340;DHT22;4207;49.314;7.162;2023-04-03T03:39:04;1.20;99.90
8340;DHT22;4207;49.314;7.162;2023-04-03T03:41:32;1.20;99.90
8340;DHT22;4207;49.314;7.162;2023-04-03T03:44:01;1.20;99.90
8340;DHT22;4207;49.314;7.162;2023-04-03T03:46:31;1.10;99.90
8340;DHT22;4207;49.314;7.162;2023-04-03T03:49:01;1.10;99.90
8340;DHT22;4207;49.314;7.162;2023-04-03T03:51:29;1.10;99.90
8340;DHT22;4207;49.314;7.162;2023-04-03T03:53:57;1.20;99.90
8340;DHT22;4207;49.314;7.162;2023-04-03T03:56:26;1.30;99.90
8340;DHT22;4207;49.314;7.162;2023-04-03T03:58:55;1.30;99.90
8340;DHT22;4207;49.314;7.162;2023-04-03T04:01:24;1.30;99.90
8340;DHT22;4207;49.314;7.162;2023-04-03T04:03:55;1.30;99.90
8340;DHT22;4207;49.314;7.162;2023-04-03T04:06:29;1.30;99.90
8340;DHT22;4207;49.314;7.162;2023-04-03T04:09:01;1.30;99.90
8340;DHT22;4207;49.314;7.162;2023-04-03T04:11:30;1.30;99.90
8340;DHT22;4207;49.314;7.162;2023-04-03T04:13:59;1.30;99.90
8340;DHT22;4207;49.314;7.162;2023-04-03T04:16:29;1.30;99.90
8340;DHT22;4207;49.314;7.162;2023-04-03T04:19:03;1.30;99.90
8340;DHT22;4207;49.314;7.162;2023-04-03T04:21:36;1.30;99.90
8340;DHT22;4207;49.314;7.162;2023-04-03T04:24:07;1.20;99.90
8340;DHT22;4207;49.314;7.162;2023-04-03T04:26:36;1.20;99.90
8340;DHT22;4207;49.314;7.162;2023-04-03T04:29:05;1.20;99.90
8340;DHT22;4207;49.314;7.162;2023-04-03T04:31:35;1.10;99.90
8340;DHT22;4207;49.314;7.162;2023-04-03T04:34:03;1.10;99.90
8340;DHT22;4207;49.314;7.162;2023-04-03T04:36:35;1.00;99.90
8340;DHT22;4207;49.314;7.162;2023-04-03T04:39:05;1.00;99.90
8340;DHT22;4207;49.314;7.162;2023-04-03T04:41:34;1.00;99.90
8340;DHT22;4207;49.314;7.162;2023-04-03T04:44:04;0.90;99.90
8340;DHT22;4207;49.314;7.162;2023-04-03T04:46:34;0.90;99.90
8340;DHT22;4207;49.314;7.162;2023-04-03T04:49:04;0.80;99.90
8340;DHT22;4207;49.314;7.162;2023-04-03T04:51:40;1.30;99.90
8340;DHT22;4207;49.314;7.162;2023-04-03T04:54:25;0.80;99.90
8340;DHT22;4207;49.314;7.162;2023-04-03T04:56:55;0.80;99.90
8340;DHT22;4207;49.314;7.162;2023-04-03T04:59:44;0.80;99.90
8340;DHT22;4207;49.314;7.162;2023-04-03T05:02:35;0.70;99.90
8340;DHT22;4207;49.314;7.162;2023-04-03T05:05:58;0.70;99.90
8340;DHT22;4207;49.314;7.162;2023-04-03T05:08:31;0.70;99.90
8340;DHT22;4207;49.314;7.162;2023-04-03T05:11:00;0.80;99.90
8340;DHT22;4207;49.314;7.162;2023-04-03T05:13:30;0.70;99.90
8340;DHT22;4207;49.314;7.162;2023-04-03T05:15:58;0.70;99.90
8340;DHT22;4207;49.314;7.162;2023-04-03T05:18:27;0.70;99.90
8340;DHT22;4207;49.314;7.162;2023-04-03T05:20:58;0.70;99.90
8340;DHT22;4207;49.314;7.162;2023-04-03T05:23:26;0.70;99.90
8340;DHT22;4207;49.314;7.162;2023-04-03T05:25:58;0.70;99.90
8340;DHT22;4207;49.314;7.162;2023-04-03T05:28:28;0.70;99.90
8340;DHT22;4207;49.314;7.162;2023-04-03T05:30:57;1.20;99.90
8340;DHT22;4207;49.314;7.162;2023-04-03T05:33:32;0.70;99.90
8340;DHT22;4207;49.314;7.162;2023-04-03T05:36:06;0.70;99.90
8340;DHT22;4207;49.314;7.162;2023-04-03T05:38:40;0.70;99.90
8340;DHT22;4207;49.314;7.162;2023-04-03T05:41:11;1.30;99.90
8340;DHT22;4207;49.314;7.162;2023-04-03T05:43:39;0.70;99.90
8340;DHT22;4207;49.314;7.162;2023-04-03T05:46:10;1.70;99.90
8340;DHT22;4207;49.314;7.162;2023-04-03T05:48:42;0.80;99.90
8340;DHT22;4207;49.314;7.162;2023-04-03T05:51:15;0.90;99.90
8340;DHT22;4207;49.314;7.162;2023-04-03T05:53:47;0.90;99.90
8340;DHT22;4207;49.314;7.162;2023-04-03T05:56:19;0.90;99.90
8340;DHT22;4207;49.314;7.162;2023-04-03T05:58:47;1.20;99.90
8340;DHT22;4207;49.314;7.162;2023-04-03T06:01:15;1.10;99.90
8340;DHT22;4207;49.314;7.162;2023-04-03T06:03:44;1.10;99.90
8340;DHT22;4207;49.314;7.162;2023-04-03T06:06:13;1.80;99.90
8340;DHT22;4207;49.314;7.162;2023-04-03T06:08:42;1.40;99.90
8340;DHT22;4207;49.314;7.162;2023-04-03T06:11:11;1.50;99.90
8340;DHT22;4207;49.314;7.162;2023-04-03T06:13:40;2.40;99.90
8340;DHT22;4207;49.314;7.162;2023-04-03T06:16:09;1.70;99.90
8340;DHT22;4207;49.314;7.162;2023-04-03T06:18:39;2.20;99.90
8340;DHT22;4207;49.314;7.162;2023-04-03T06:21:08;1.80;99.90
8340;DHT22;4207;49.314;7.162;2023-04-03T06:23:36;2.00;99.90
8340;DHT22;4207;49.314;7.162;2023-04-03T06:26:05;1.90;99.90
8340;DHT22;4207;49.314;7.162;2023-04-03T06:28:37;2.00;99.90
8340;DHT22;4207;49.314;7.162;2023-04-03T06:31:06;2.40;99.90
8340;DHT22;4207;49.314;7.162;2023-04-03T06:33:35;2.10;99.90
8340;DHT22;4207;49.314;7.162;2023-04-03T06:36:05;2.20;99.90
8340;DHT22;4207;49.314;7.162;2023-04-03T06:38:33;2.30;99.90
8340;DHT22;4207;49.314;7.162;2023-04-03T06:41:02;2.40;99.90
8340;DHT22;4207;49.314;7.162;2023-04-03T06:43:30;2.40;99.90
8340;DHT22;4207;49.314;7.162;2023-04-03T06:46:00;2.50;99.90
8340;DHT22;4207;49.314;7.162;2023-04-03T06:48:31;2.60;99.90
8340;DHT22;4207;49.314;7.162;2023-04-03T06:50:59;2.70;99.90
8340;DHT22;4207;49.314;7.162;2023-04-03T06:53:27;3.00;99.90
8340;DHT22;4207;49.314;7.162;2023-04-03T06:55:55;2.80;99.90
8340;DHT22;4207;49.314;7.162;2023-04-03T06:58:23;2.90;99.90
8340;DHT22;4207;49.314;7.162;2023-04-03T07:00:51;2.90;99.90
8340;DHT22;4207;49.314;7.162;2023-04-03T07:03:19;3.00;99.90
8340;DHT22;4207;49.314;7.162;2023-04-03T07:05:49;3.10;99.90
8340;DHT22;4207;49.314;7.162;2023-04-03T07:08:18;3.10;99.90
8340;DHT22;4207;49.314;7.162;2023-04-03T07:10:46;3.20;99.90
8340;DHT22;4207;49.314;7.162;2023-04-03T07:13:14;3.30;99.90
8340;DHT22;4207;49.314;7.162;2023-04-03T07:15:43;3.30;99.90
8340;DHT22;4207;49.314;7.162;2023-04-03T07:18:11;3.40;99.90
8340;DHT22;4207;49.314;7.162;2023-04-03T07:20:39;3.40;99.90
8340;DHT22;4207;49.314;7.162;2023-04-03T07:23:09;3.50;99.90
8340;DHT22;4207;49.314;7.162;2023-04-03T07:25:42;3.50;99.90
8340;DHT22;4207;49.314;7.162;2023-04-03T07:28:11;3.60;99.90
8340;DHT22;4207;49.314;7.162;2023-04-03T07:30:43;3.60;99.90
8340;DHT22;4207;49.314;7.162;2023-04-03T07:33:14;3.70;99.90
8340;DHT22;4207;49.314;7.162;2023-04-03T07:35:43;3.80;99.90
8340;DHT22;4207;49.314;7.162;2023-04-03T07:38:12;3.80;99.90
8340;DHT22;4207;49.314;7.162;2023-04-03T07:40:45;4.10;99.90
8340;DHT22;4207;49.314;7.162;2023-04-03T07:43:14;4.00;99.90
8340;DHT22;4207;49.314;7.162;2023-04-03T07:45:42;4.10;99.90
8340;DHT22;4207;49.314;7.162;2023-04-03T07:48:12;4.10;99.90
8340;DHT22;4207;49.314;7.162;2023-04-03T07:50:41;4.20;99.90
8340;DHT22;4207;49.314;7.162;2023-04-03T07:53:09;4.30;99.90
8340;DHT22;4207;49.314;7.162;2023-04-03T07:55:39;4.30;99.90
8340;DHT22;4207;49.314;7.162;2023-04-03T07:58:10;4.40;99.90
8340;DHT22;4207;49.314;7.162;2023-04-03T08:00:39;4.40;99.90
8340;DHT22;4207;49.314;7.162;2023-04-03T08:03:09;4.50;99.90
8340;DHT22;4207;49.314;7.162;2023-04-03T08:05:39;4.60;99.90
8340;DHT22;4207;49.314;7.162;2023-04-03T08:08:09;4.70;99.90
8340;DHT22;4207;49.314;7.162;2023-04-03T08:10:40;4.90;99.90
8340;DHT22;4207;49.314;7.162;2023-04-03T08:13:09;5.10;99.90
8340;DHT22;4207;49.314;7.162;2023-04-03T08:15:37;5.20;99.90
8340;DHT22;4207;49.314;7.162;2023-04-03T08:18:05;5.20;99.90
8340;DHT22;4207;49.314;7.162;2023-04-03T08:20:34;5.10;99.90
8340;DHT22;4207;49.314;7.162;2023-04-03T08:23:02;5.00;99.90
8340;DHT22;4207;49.314;7.162;2023-04-03T08:25:30;4.80;99.90
8340;DHT22;4207;49.314;7.162;2023-04-03T08:27:59;4.80;99.90
8340;DHT22;4207;49.314;7.162;2023-04-03T08:30:28;4.70;99.90
8340;DHT22;4207;49.314;7.162;2023-04-03T08:32:57;4.80;99.90
8340;DHT22;4207;49.314;7.162;2023-04-03T08:35:25;4.80;99.90
8340;DHT22;4207;49.314;7.162;2023-04-03T08:37:53;4.90;99.90
8340;DHT22;4207;49.314;7.162;2023-04-03T08:40:22;4.90;99.90
8340;DHT22;4207;49.314;7.162;2023-04-03T08:43:16;4.90;99.90
8340;DHT22;4207;49.314;7.162;2023-04-03T08:45:50;5.00;99.90
8340;DHT22;4207;49.314;7.162;2023-04-03T08:48:22;5.00;99.90
8340;DHT22;4207;49.314;7.162;2023-04-03T08:50:53;4.90;99.90
8340;DHT22;4207;49.314;7.162;2023-04-03T08:53:25;5.00;99.90
8340;DHT22;4207;49.314;7.162;2023-04-03T08:55:55;5.40;99.90
8340;DHT22;4207;49.314;7.162;2023-04-03T08:58:27;5.20;99.90
8340;DHT22;4207;49.314;7.162;2023-04-03T09:00:58;5.60;99.90
8340;DHT22;4207;49.314;7.162;2023-04-03T09:03:29;5.80;99.90
8340;DHT22;4207;49.314;7.162;2023-04-03T09:06:03;5.90;99.90
8340;DHT22;4207;49.314;7.162;2023-04-03T09:08:38;6.10;99.90
8340;DHT22;4207;49.314;7.162;2023-04-03T09:11:15;6.10;99.90
8340;DHT22;4207;49.314;7.162;2023-04-03T09:13:50;6.20;99.90
8340;DHT22;4207;49.314;7.162;2023-04-03T09:16:30;6.20;99.90
8340;DHT22;4207;49.314;7.162;2023-04-03T09:19:09;6.30;99.90
8340;DHT22;4207;49.314;7.162;2023-04-03T09:21:41;6.30;99.90
8340;DHT22;4207;49.314;7.162;2023-04-03T09:24:12;6.30;99.90
8340;DHT22;4207;49.314;7.162;2023-04-03T09:26:45;6.10;99.90
8340;DHT22;4207;49.314;7.162;2023-04-03T09:29:20;5.90;99.90
8340;DHT22;4207;49.314;7.162;2023-04-03T09:31:50;5.80;99.90
8340;DHT22;4207;49.314;7.162;2023-04-03T09:34:23;5.80;99.90
8340;DHT22;4207;49.314;7.162;2023-04-03T09:36:55;5.80;99.90
8340;DHT22;4207;49.314;7.162;2023-04-03T09:39:26;5.70;99.90
8340;DHT22;4207;49.314;7.162;2023-04-03T09:41:57;5.70;99.90
8340;DHT22;4207;49.314;7.162;2023-04-03T09:44:34;5.70;99.90
8340;DHT22;4207;49.314;7.162;2023-04-03T09:47:19;5.90;99.90
8340;DHT22;4207;49.314;7.162;2023-04-03T09:49:47;5.80;99.90
8340;DHT22;4207;49.314;7.162;2023-04-03T09:52:20;5.80;99.90
8340;DHT22;4207;49.314;7.162;2023-04-03T09:54:48;5.90;99.90
8340;DHT22;4207;49.314;7.162;2023-04-03T09:57:17;5.80;99.90
8340;DHT22;4207;49.314;7.162;2023-04-03T09:59:57;5.80;99.90
8340;DHT22;4207;49.314;7.162;2023-04-03T10:02:33;5.90;99.90
8340;DHT22;4207;49.314;7.162;2023-04-03T10:05:03;6.20;99.90
8340;DHT22;4207;49.314;7.162;2023-04-03T10:07:37;6.30;99.90
8340;DHT22;4207;49.314;7.162;2023-04-03T10:10:20;6.30;99.90
8340;DHT22;4207;49.314;7.162;2023-04-03T10:13:04;6.20;99.90
8340;DHT22;4207;49.314;7.162;2023-04-03T10:15:41;6.20;99.90
8340;DHT22;4207;49.314;7.162;2023-04-03T10:18:26;6.20;99.90
8340;DHT22;4207;49.314;7.162;2023-04-03T10:21:02;6.40;99.90
8340;DHT22;4207;49.314;7.162;2023-04-03T10:23:41;6.40;99.90
8340;DHT22;4207;49.314;7.162;2023-04-03T10:26:20;6.30;99.90
8340;DHT22;4207;49.314;7.162;2023-04-03T10:28:57;6.30;99.90
8340;DHT22;4207;49.314;7.162;2023-04-03T10:31:36;6.30;99.90
8340;DHT22;4207;49.314;7.162;2023-04-03T10:34:06;6.70;99.90
8340;DHT22;4207;49.314;7.162;2023-04-03T10:36:42;6.60;99.90
8340;DHT22;4207;49.314;7.162;2023-04-03T10:39:21;6.70;98.60
8340;DHT22;4207;49.314;7.162;2023-04-03T10:42:01;6.80;98.00
8340;DHT22;4207;49.314;7.162;2023-04-03T10:44:51;6.80;98.20
8340;DHT22;4207;49.314;7.162;2023-04-03T10:47:24;6.90;99.00
8340;DHT22;4207;49.314;7.162;2023-04-03T10:50:03;7.60;99.30
8340;DHT22;4207;49.314;7.162;2023-04-03T10:52:46;7.40;97.90
8340;DHT22;4207;49.314;7.162;2023-04-03T10:55:28;7.50;96.50
8340;DHT22;4207;49.314;7.162;2023-04-03T10:57:59;7.60;97.10
8340;DHT22;4207;49.314;7.162;2023-04-03T11:00:36;7.60;97.70
8340;DHT22;4207;49.314;7.162;2023-04-03T11:03:12;7.70;97.60
8340;DHT22;4207;49.314;7.162;2023-04-03T11:05:44;8.00;97.70
8340;DHT22;4207;49.314;7.162;2023-04-03T11:08:19;8.30;96.50
8340;DHT22;4207;49.314;7.162;2023-04-03T11:10:51;8.60;95.40
8340;DHT22;4207;49.314;7.162;2023-04-03T11:13:23;8.90;96.70
8340;DHT22;4207;49.314;7.162;2023-04-03T11:15:53;8.30;95.50
8340;DHT22;4207;49.314;7.162;2023-04-03T11:18:29;8.50;96.50
8340;DHT22;4207;49.314;7.162;2023-04-03T11:21:04;8.50;94.30
8340;DHT22;4207;49.314;7.162;2023-04-03T11:23:35;8.40;94.00
8340;DHT22;4207;49.314;7.162;2023-04-03T11:26:16;8.40;93.80
8340;DHT22;4207;49.314;7.162;2023-04-03T11:28:45;8.50;93.80
8340;DHT22;4207;49.314;7.162;2023-04-03T11:31:33;8.70;94.00
8340;DHT22;4207;49.314;7.162;2023-04-03T11:34:19;8.80;94.10
8340;DHT22;4207;49.314;7.162;2023-04-03T11:36:52;9.00;94.40
8340;DHT22;4207;49.314;7.162;2023-04-03T11:39:24;9.20;93.00
8340;DHT22;4207;49.314;7.162;2023-04-03T11:41:54;9.20;92.70
8340;DHT22;4207;49.314;7.162;2023-04-03T11:44:38;8.80;93.00
8340;DHT22;4207;49.314;7.162;2023-04-03T11:47:09;8.30;93.30
8340;DHT22;4207;49.314;7.162;2023-04-03T11:49:58;8.00;94.70
8340;DHT22;4207;49.314;7.162;2023-04-03T11:53:02;7.90;94.70
8340;DHT22;4207;49.314;7.162;2023-04-03T11:55:52;7.70;94.00
8340;DHT22;4207;49.314;7.162;2023-04-03T11:58:22;8.10;94.10
8340;DHT22;4207;49.314;7.162;2023-04-03T12:00:53;7.60;93.70
8340;DHT22;4207;49.314;7.162;2023-04-03T12:04:06;7.40;93.90
8340;DHT22;4207;49.314;7.162;2023-04-03T12:10:16;7.10;95.20
8340;DHT22;4207;49.314;7.162;2023-04-03T12:12:59;7.30;94.60
8340;DHT22;4207;49.314;7.162;2023-04-03T12:15:54;7.40;94.10
8340;DHT22;4207;49.314;7.162;2023-04-03T12:18:58;7.40;94.10
8340;DHT22;4207;49.314;7.162;2023-04-03T12:24:35;7.90;94.10
8340;DHT22;4207;49.314;7.162;2023-04-03T12:27:26;8.20;93.90
8340;DHT22;4207;49.314;7.162;2023-04-03T12:30:15;8.30;93.30
8340;DHT22;4207;49.314;7.162;2023-04-03T12:33:15;8.40;92.80
8340;DHT22;4207;49.314;7.162;2023-04-03T12:35:56;8.70;92.50
8340;DHT22;4207;49.314;7.162;2023-04-03T12:41:37;8.00;92.20
8340;DHT22;4207;49.314;7.162;2023-04-03T12:44:20;8.00;93.00
8340;DHT22;4207;49.314;7.162;2023-04-03T12:46:52;7.50;93.60
8340;DHT22;4207;49.314;7.162;2023-04-03T12:49:36;7.50;93.80
8340;DHT22;4207;49.314;7.162;2023-04-03T12:52:06;7.60;94.60
8340;DHT22;4207;49.314;7.162;2023-04-03T12:54:45;7.60;93.20
8340;DHT22;4207;49.314;7.162;2023-04-03T12:57:17;7.40;93.20
8340;DHT22;4207;49.314;7.162;2023-04-03T12:59:50;7.30;94.00
8340;DHT22;4207;49.314;7.162;2023-04-03T13:02:23;7.10;94.10
8340;DHT22;4207;49.314;7.162;2023-04-03T13:04:53;6.90;93.60
8340;DHT22;4207;49.314;7.162;2023-04-03T13:07:27;6.80;93.90
8340;DHT22;4207;49.314;7.162;2023-04-03T13:10:09;6.90;94.30
8340;DHT22;4207;49.314;7.162;2023-04-03T13:12:46;7.30;94.10
8340;DHT22;4207;49.314;7.162;2023-04-03T13:15:18;7.50;94.40
8340;DHT22;4207;49.314;7.162;2023-04-03T13:17:49;7.90;95.10
8340;DHT22;4207;49.314;7.162;2023-04-03T13:20:25;8.00;92.90
8340;DHT22;4207;49.314;7.162;2023-04-03T13:22:57;8.10;92.70
8340;DHT22;4207;49.314;7.162;2023-04-03T13:25:28;9.40;93.60
8340;DHT22;4207;49.314;7.162;2023-04-03T13:27:58;8.10;91.50
8340;DHT22;4207;49.314;7.162;2023-04-03T13:30:49;8.20;92.90
8340;DHT22;4207;49.314;7.162;2023-04-03T13:33:24;8.40;92.30
8340;DHT22;4207;49.314;7.162;2023-04-03T13:35:57;8.70;91.90
8340;DHT22;4207;49.314;7.162;2023-04-03T13:38:28;8.70;90.90
8340;DHT22;4207;49.314;7.162;2023-04-03T13:41:00;8.40;90.00
8340;DHT22;4207;49.314;7.162;2023-04-03T13:43:31;8.20;90.80
8340;DHT22;4207;49.314;7.162;2023-04-03T13:46:22;8.00;90.60
8340;DHT22;4207;49.314;7.162;2023-04-03T13:48:52;7.90;90.80
8340;DHT22;4207;49.314;7.162;2023-04-03T13:51:22;8.00;91.50
8340;DHT22;4207;49.314;7.162;2023-04-03T13:53:53;8.10;91.00
8340;DHT22;4207;49.314;7.162;2023-04-03T13:56:30;8.00;90.90
8340;DHT22;4207;49.314;7.162;2023-04-03T13:59:04;7.80;91.30
8340;DHT22;4207;49.314;7.162;2023-04-03T14:01:42;8.00;90.40
8340;DHT22;4207;49.314;7.162;2023-04-03T14:04:17;8.00;91.10
8340;DHT22;4207;49.314;7.162;2023-04-03T14:06:45;8.50;91.60
8340;DHT22;4207;49.314;7.162;2023-04-03T14:09:16;8.80;91.30
8340;DHT22;4207;49.314;7.162;2023-04-03T14:11:46;8.90;90.30
8340;DHT22;4207;49.314;7.162;2023-04-03T14:14:16;8.80;90.90
8340;DHT22;4207;49.314;7.162;2023-04-03T14:16:50;8.60;89.40
8340;DHT22;4207;49.314;7.162;2023-04-03T14:19:22;8.40;90.40
8340;DHT22;4207;49.314;7.162;2023-04-03T14:21:51;8.20;91.30
8340;DHT22;4207;49.314;7.162;2023-04-03T14:24:23;8.40;90.30
8340;DHT22;4207;49.314;7.162;2023-04-03T14:26:52;8.70;90.40
8340;DHT22;4207;49.314;7.162;2023-04-03T14:29:21;8.90;90.10
8340;DHT22;4207;49.314;7.162;2023-04-03T14:31:51;9.10;89.90
8340;DHT22;4207;49.314;7.162;2023-04-03T14:34:37;9.10;87.40
8340;DHT22;4207;49.314;7.162;2023-04-03T14:37:06;8.90;90.10
8340;DHT22;4207;49.314;7.162;2023-04-03T14:39:37;8.80;88.80
8340;DHT22;4207;49.314;7.162;2023-04-03T14:42:06;8.70;87.20
8340;DHT22;4207;49.314;7.162;2023-04-03T14:44:34;8.60;88.70
8340;DHT22;4207;49.314;7.162;2023-04-03T14:47:04;8.80;90.00
8340;DHT22;4207;49.314;7.162;2023-04-03T14:49:37;8.80;87.10
8340;DHT22;4207;49.314;7.162;2023-04-03T14:52:18;8.90;89.00
8340;DHT22;4207;49.314;7.162;2023-04-03T14:54:46;8.70;90.30
8340;DHT22;4207;49.314;7.162;2023-04-03T14:57:15;8.40;89.30
8340;DHT22;4207;49.314;7.162;2023-04-03T14:59:45;8.30;89.70
8340;DHT22;4207;49.314;7.162;2023-04-03T15:02:29;8.20;89.60
8340;DHT22;4207;49.314;7.162;2023-04-03T15:04:59;8.20;89.30
8340;DHT22;4207;49.314;7.162;2023-04-03T15:07:31;8.10;88.70
8340;DHT22;4207;49.314;7.162;2023-04-03T15:10:03;8.10;87.60
8340;DHT22;4207;49.314;7.162;2023-04-03T15:12:31;7.90;87.10
8340;DHT22;4207;49.314;7.162;2023-04-03T15:14:59;7.80;87.70
8340;DHT22;4207;49.314;7.162;2023-04-03T15:17:31;7.70;88.40
8340;DHT22;4207;49.314;7.162;2023-04-03T15:19:59;7.90;89.80
8340;DHT22;4207;49.314;7.162;2023-04-03T15:22:28;8.10;90.30
8340;DHT22;4207;49.314;7.162;2023-04-03T15:24:56;8.20;90.50
8340;DHT22;4207;49.314;7.162;2023-04-03T15:27:27;8.10;90.00
8340;DHT22;4207;49.314;7.162;2023-04-03T15:29:55;8.20;87.30
8340;DHT22;4207;49.314;7.162;2023-04-03T15:32:23;7.90;87.70
8340;DHT22;4207;49.314;7.162;2023-04-03T15:34:53;7.90;87.60
8340;DHT22;4207;49.314;7.162;2023-04-03T15:37:24;7.90;87.00
8340;DHT22;4207;49.314;7.162;2023-04-03T15:39:52;7.80;89.40
8340;DHT22;4207;49.314;7.162;2023-04-03T15:42:21;7.90;90.20
8340;DHT22;4207;49.314;7.162;2023-04-03T15:44:49;7.80;89.10
8340;DHT22;4207;49.314;7.162;2023-04-03T15:47:18;7.90;89.20
8340;DHT22;4207;49.314;7.162;2023-04-03T15:49:47;7.70;88.10
8340;DHT22;4207;49.314;7.162;2023-04-03T15:52:16;7.70;87.50
8340;DHT22;4207;49.314;7.162;2023-04-03T15:54:44;7.90;88.40
8340;DHT22;4207;49.314;7.162;2023-04-03T15:57:12;8.00;87.50
8340;DHT22;4207;49.314;7.162;2023-04-03T15:59:40;8.10;88.90
8340;DHT22;4207;49.314;7.162;2023-04-03T16:02:12;8.10;87.10
8340;DHT22;4207;49.314;7.162;2023-04-03T16:04:40;8.00;87.10
8340;DHT22;4207;49.314;7.162;2023-04-03T16:07:09;7.90;87.60
8340;DHT22;4207;49.314;7.162;2023-04-03T16:09:39;7.60;87.40
8340;DHT22;4207;49.314;7.162;2023-04-03T16:12:07;7.30;86.50
8340;DHT22;4207;49.314;7.162;2023-04-03T16:14:35;7.00;87.70
8340;DHT22;4207;49.314;7.162;2023-04-03T16:17:03;7.00;89.30
8340;DHT22;4207;49.314;7.162;2023-04-03T16:19:31;6.90;89.90
8340;DHT22;4207;49.314;7.162;2023-04-03T16:22:02;7.10;90.60
8340;DHT22;4207;49.314;7.162;2023-04-03T16:24:31;7.00;90.60
8340;DHT22;4207;49.314;7.162;2023-04-03T16:27:01;7.10;90.10
8340;DHT22;4207;49.314;7.162;2023-04-03T16:29:29;7.20;88.90
8340;DHT22;4207;49.314;7.162;2023-04-03T16:31:57;7.20;86.50
8340;DHT22;4207;49.314;7.162;2023-04-03T16:34:26;7.10;87.60
8340;DHT22;4207;49.314;7.162;2023-04-03T16:36:56;7.10;87.20
8340;DHT22;4207;49.314;7.162;2023-04-03T16:39:25;6.90;88.30
8340;DHT22;4207;49.314;7.162;2023-04-03T16:41:54;6.80;88.20
8340;DHT22;4207;49.314;7.162;2023-04-03T16:44:23;7.50;87.90
8340;DHT22;4207;49.314;7.162;2023-04-03T16:46:51;7.20;88.10
8340;DHT22;4207;49.314;7.162;2023-04-03T16:49:20;6.80;87.80
8340;DHT22;4207;49.314;7.162;2023-04-03T16:51:48;6.80;88.60
8340;DHT22;4207;49.314;7.162;2023-04-03T16:54:17;6.70;88.40
8340;DHT22;4207;49.314;7.162;2023-04-03T16:56:45;6.80;86.50
8340;DHT22;4207;49.314;7.162;2023-04-03T16:59:13;7.10;86.70